Time;durP1;ratioP1;P1;durP2;ratioP2;P2;SDS_P1;SDS_P2;PMS_P1;PMS_P2;Temp;Humidity;BMP_temperature;BMP_pressure;BME280_temperature;BME280_humidity;BME280_pressure;Samples;Min_cycle;Max_cycle;Signal;HPM_P1;HPM_P2
2020/12/24 00:02:56;;;;;;;0.38;0.38;;;9.00;96.70;;;;;;10441236;28;20135;-66
2020/12/24 00:07:57;;;;;;;0.10;0.10;;;9.00;96.50;;;;;;10442227;28;20047;-65
2020/12/24 00:12:59;;;;;;;0.13;0.13;;;8.90;96.00;;;;;;10446245;28;20099;-66
2020/12/24 00:18:01;;;;;;;0.10;0.10;;;9.00;95.70;;;;;;10447175;28;20050;-66
2020/12/24 00:23:02;;;;;;;0.10;0.10;;;9.00;95.60;;;;;;10447323;28;20041;-65
2020/12/24 00:28:06;;;;;;;0.10;0.10;;;8.90;94.90;;;;;;10445195;28;20135;-66
2020/12/24 00:33:07;;;;;;;0.20;0.20;;;8.70;94.60;;;;;;10445021;28;20044;-66
2020/12/24 00:38:08;;;;;;;0.13;0.13;;;8.60;94.70;;;;;;10444836;28;20045;-66
2020/12/24 00:43:10;;;;;;;0.25;0.25;;;8.50;94.80;;;;;;10444970;28;20065;-65
2020/12/24 00:48:12;;;;;;;0.20;0.20;;;8.40;95.00;;;;;;10447365;28;20045;-65
2020/12/24 00:53:13;;;;;;;0.20;0.20;;;8.30;94.80;;;;;;10444051;28;20056;-65
2020/12/24 00:58:15;;;;;;;0.10;0.10;;;8.30;94.90;;;;;;10442411;28;20495;-66
2020/12/24 01:03:17;;;;;;;0.20;0.20;;;8.20;94.30;;;;;;10445045;28;20045;-66
2020/12/24 01:08:18;;;;;;;0.15;0.15;;;8.10;94.50;;;;;;10442788;28;20144;-67
2020/12/24 01:13:20;;;;;;;0.10;0.10;;;8.10;94.40;;;;;;10444834;28;20055;-66
2020/12/24 01:18:21;;;;;;;0.35;0.35;;;8.10;94.40;;;;;;10443846;28;20452;-66
2020/12/24 01:23:23;;;;;;;0.20;0.20;;;8.10;94.40;;;;;;10439806;28;20053;-67
2020/12/24 01:28:25;;;;;;;0.17;0.17;;;8.10;94.20;;;;;;10442267;28;20068;-66
2020/12/24 01:33:26;;;;;;;0.30;0.30;;;8.00;94.20;;;;;;10438379;28;20086;-66
2020/12/24 01:38:27;;;;;;;0.20;0.20;;;8.00;94.70;;;;;;10438805;28;20514;-66
2020/12/24 01:43:30;;;;;;;0.98;0.75;;;7.90;94.70;;;;;;10442260;28;20417;-67
2020/12/24 01:48:31;;;;;;;0.20;0.20;;;7.90;94.80;;;;;;10441346;28;20468;-66
2020/12/24 01:53:33;;;;;;;0.60;0.60;;;7.80;94.90;;;;;;10441172;28;20063;-65
2020/12/24 01:58:36;;;;;;;1.20;1.20;;;7.80;95.00;;;;;;10441362;28;20136;-66
2020/12/24 02:03:37;;;;;;;0.20;0.20;;;7.80;95.20;;;;;;10428417;28;20033;-66
2020/12/24 02:08:39;;;;;;;0.10;0.10;;;7.90;95.20;;;;;;10438957;28;20128;-66
2020/12/24 02:13:41;;;;;;;0.15;0.15;;;8.00;95.00;;;;;;10437980;28;20048;-66
2020/12/24 02:18:42;;;;;;;0.10;0.10;;;8.00;94.90;;;;;;10440117;28;20147;-66
2020/12/24 02:23:44;;;;;;;2.22;0.88;;;7.90;94.90;;;;;;10440469;28;20066;-66
2020/12/24 02:28:46;;;;;;;0.52;0.52;;;8.00;94.90;;;;;;10444081;28;20047;-66
2020/12/24 02:33:47;;;;;;;0.20;0.20;;;8.00;94.70;;;;;;10440080;28;20505;-66
2020/12/24 02:38:49;;;;;;;0.10;0.10;;;8.10;94.60;;;;;;10441858;28;20049;-66
2020/12/24 02:43:51;;;;;;;0.10;0.10;;;8.20;94.50;;;;;;10442621;28;20094;-66
2020/12/24 02:48:52;;;;;;;0.30;0.30;;;8.30;94.20;;;;;;10443491;28;20525;-66
2020/12/24 02:53:54;;;;;;;0.20;0.20;;;8.40;93.80;;;;;;10440053;28;20053;-66
2020/12/24 02:58:55;;;;;;;0.10;0.10;;;8.40;93.80;;;;;;10442173;28;20453;-65
2020/12/24 03:03:57;;;;;;;0.17;0.17;;;;;;;;;;10444554;28;20106;-66
2020/12/24 03:08:59;;;;;;;0.40;0.40;;;8.40;93.40;;;;;;10439806;28;20045;-66
2020/12/24 03:14:00;;;;;;;0.20;0.20;;;8.40;93.80;;;;;;10442808;28;20416;-66
2020/12/24 03:19:02;;;;;;;0.10;0.10;;;8.30;93.90;;;;;;10452806;28;20136;-67
2020/12/24 03:24:04;;;;;;;0.10;0.10;;;8.30;94.10;;;;;;10451332;28;20131;-66
2020/12/24 03:29:05;;;;;;;0.10;0.10;;;8.30;94.30;;;;;;10448628;28;20057;-65
2020/12/24 03:34:07;;;;;;;0.15;0.15;;;8.30;94.50;;;;;;10448641;28;20041;-67
2020/12/24 03:39:09;;;;;;;0.15;0.15;;;8.30;94.80;;;;;;10447561;28;20374;-65
2020/12/24 03:44:10;;;;;;;1.63;1.27;;;8.20;94.70;;;;;;10450604;28;20048;-64
2020/12/24 03:49:11;;;;;;;0.25;0.25;;;8.10;94.90;;;;;;10445852;28;20053;-65
2020/12/24 03:54:13;;;;;;;0.20;0.20;;;8.00;95.60;;;;;;10450838;28;20136;-64
2020/12/24 03:59:15;;;;;;;0.20;0.20;;;7.80;95.80;;;;;;10450363;28;20048;-64
2020/12/24 04:04:16;;;;;;;0.20;0.20;;;7.20;95.50;;;;;;10452991;28;20131;-65
2020/12/24 04:09:18;;;;;;;0.30;0.30;;;6.50;95.50;;;;;;10450271;28;20059;-66
2020/12/24 04:14:20;;;;;;;0.50;0.50;;;6.00;95.80;;;;;;10452923;28;20496;-65
2020/12/24 04:19:21;;;;;;;0.20;0.20;;;5.60;96.20;;;;;;10452006;28;20123;-65
2020/12/24 04:24:23;;;;;;;0.30;0.30;;;5.10;96.30;;;;;;10451102;28;21244;-66
2020/12/24 04:29:24;;;;;;;0.20;0.20;;;4.70;96.50;;;;;;10449289;28;20053;-64
2020/12/24 04:34:26;;;;;;;0.20;0.20;;;4.60;97.00;;;;;;10448420;28;20109;-64
2020/12/24 04:39:28;;;;;;;0.20;0.20;;;4.50;97.20;;;;;;10451108;28;20124;-64
2020/12/24 04:44:30;;;;;;;0.22;0.22;;;4.30;97.40;;;;;;10449042;28;20052;-63
2020/12/24 04:49:32;;;;;;;0.22;0.22;;;4.20;97.70;;;;;;10448637;28;20529;-65
2020/12/24 04:54:35;;;;;;;0.30;0.30;;;4.10;97.80;;;;;;10448818;28;20052;-66
2020/12/24 04:59:36;;;;;;;0.20;0.20;;;4.10;97.90;;;;;;10449509;28;20057;-64
2020/12/24 05:04:38;;;;;;;0.25;0.25;;;4.00;98.00;;;;;;10449441;28;20100;-67
2020/12/24 05:09:41;;;;;;;0.30;0.30;;;3.90;98.20;;;;;;10450056;28;20076;-65
2020/12/24 05:14:43;;;;;;;0.22;0.22;;;;;;;;;;10449337;28;20049;-64
2020/12/24 05:19:58;;;;;;;0.25;0.25;;;3.90;98.20;;;;;;10447718;28;20860;-66
2020/12/24 05:25:10;;;;;;;0.20;0.20;;;4.00;98.60;;;;;;10447699;28;20124;-65
2020/12/24 05:30:12;;;;;;;0.30;0.30;;;4.00;98.70;;;;;;10447786;28;20076;-66
2020/12/24 05:35:13;;;;;;;0.30;0.30;;;4.10;98.80;;;;;;10446589;28;20595;-66
2020/12/24 05:40:24;;;;;;;0.30;0.30;;;4.10;98.80;;;;;;10448842;28;20102;-64
2020/12/24 05:45:28;;;;;;;0.40;0.40;;;4.00;98.80;;;;;;10446474;28;20609;-65
2020/12/24 05:50:30;;;;;;;0.30;0.30;;;4.10;98.90;;;;;;10448518;28;20051;-66
2020/12/24 05:55:32;;;;;;;0.30;0.30;;;4.20;99.90;;;;;;10447603;28;20140;-66
2020/12/24 06:00:36;;;;;;;0.30;0.30;;;4.10;99.70;;;;;;10447561;28;20164;-66
2020/12/24 06:05:54;;;;;;;0.25;0.25;;;4.10;99.90;;;;;;10448442;28;20052;-66
2020/12/24 06:11:07;;;;;;;0.20;0.20;;;4.00;99.00;;;;;;10446549;28;20134;-66
2020/12/24 06:16:09;;;;;;;0.20;0.20;;;4.00;99.00;;;;;;10446852;28;20075;-66
2020/12/24 06:21:15;;;;;;;0.17;0.17;;;4.10;99.00;;;;;;10448094;28;20511;-67
2020/12/24 06:26:22;;;;;;;0.25;0.25;;;4.10;99.10;;;;;;10446152;28;20124;-66
2020/12/24 06:31:24;;;;;;;0.30;0.30;;;4.10;99.10;;;;;;10447347;28;20045;-66
2020/12/24 06:36:33;;;;;;;0.20;0.20;;;4.10;99.10;;;;;;10445218;28;20059;-66
2020/12/24 06:41:37;;;;;;;0.38;0.38;;;4.00;99.00;;;;;;10446960;28;20132;-66
2020/12/24 06:46:57;;;;;;;0.30;0.30;;;4.00;99.90;;;;;;10445574;28;20041;-66
2020/12/24 06:51:59;;;;;;;0.20;0.20;;;4.10;99.20;;;;;;10446424;28;20116;-66
2020/12/24 06:57:22;;;;;;;0.20;0.20;;;4.30;99.30;;;;;;10445565;28;20511;-66
2020/12/24 07:02:24;;;;;;;0.20;0.20;;;4.40;99.40;;;;;;10444238;28;20128;-67
2020/12/24 07:07:44;;;;;;;0.20;0.20;;;;;;;;;;10447430;28;20045;-66
2020/12/24 07:12:53;;;;;;;0.20;0.20;;;4.70;99.90;;;;;;10445155;28;20045;-66
2020/12/24 07:17:55;;;;;;;0.20;0.20;;;4.80;99.60;;;;;;10446086;28;20061;-66
2020/12/24 07:22:57;;;;;;;0.30;0.30;;;4.80;99.60;;;;;;10645757;22;20408;-65
2020/12/24 07:27:59;;;;;;;0.40;0.40;;;4.90;99.70;;;;;;10387131;28;20040;-65
2020/12/24 07:33:00;;;;;;;0.20;0.20;;;4.80;99.60;;;;;;10388086;28;20485;-65
2020/12/24 07:38:01;;;;;;;0.30;0.30;;;4.70;99.50;;;;;;10383229;28;20053;-65
2020/12/24 07:43:12;;;;;;;0.25;0.25;;;4.70;99.50;;;;;;10382791;28;20044;-66
2020/12/24 07:48:15;;;;;;;0.30;0.30;;;4.80;99.60;;;;;;10380755;28;20125;-66
2020/12/24 07:53:18;;;;;;;0.73;0.73;;;4.90;99.60;;;;;;10379048;28;20061;-66
2020/12/24 07:58:20;;;;;;;0.20;0.20;;;5.00;99.50;;;;;;10384477;28;20121;-66
2020/12/24 08:03:21;;;;;;;0.20;0.20;;;5.00;99.50;;;;;;10392173;28;20048;-65
2020/12/24 08:08:23;;;;;;;0.20;0.20;;;5.10;99.50;;;;;;10390663;28;20046;-67
2020/12/24 08:13:25;;;;;;;0.30;0.30;;;5.10;99.50;;;;;;10403916;28;20069;-66
2020/12/24 08:18:33;;;;;;;0.30;0.30;;;5.20;99.50;;;;;;10394383;28;20726;-66
2020/12/24 08:23:45;;;;;;;0.20;0.20;;;5.30;99.50;;;;;;10388024;28;20516;-66
2020/12/24 08:28:54;;;;;;;1.55;1.45;;;5.30;99.40;;;;;;10391718;28;20054;-65
2020/12/24 08:33:55;;;;;;;0.20;0.20;;;5.30;99.30;;;;;;10390808;28;20077;-65
2020/12/24 08:39:07;;;;;;;0.30;0.30;;;5.40;99.20;;;;;;10389959;28;20140;-64
2020/12/24 08:44:10;;;;;;;0.30;0.30;;;5.50;99.10;;;;;;10393293;28;20115;-67
2020/12/24 08:49:20;;;;;;;0.20;0.20;;;5.60;99.10;;;;;;10380556;28;20446;-68
2020/12/24 08:54:21;;;;;;;0.20;0.20;;;5.70;99.10;;;;;;10389283;28;20141;-63
2020/12/24 08:59:23;;;;;;;0.20;0.20;;;5.80;99.20;;;;;;10378856;28;20481;-66
2020/12/24 09:04:24;;;;;;;1.63;1.52;;;5.60;99.00;;;;;;10613984;22;20536;-67
2020/12/24 09:09:26;;;;;;;0.20;0.20;;;5.50;98.90;;;;;;10339683;28;20046;-66
2020/12/24 09:14:28;;;;;;;0.22;0.22;;;5.60;98.90;;;;;;10338351;28;20064;-67
2020/12/24 09:19:30;;;;;;;0.20;0.20;;;5.70;98.80;;;;;;10345016;28;20107;-68
2020/12/24 09:24:31;;;;;;;0.20;0.20;;;5.70;98.50;;;;;;10336385;28;20401;-73
2020/12/24 09:29:33;;;;;;;0.20;0.20;;;5.70;98.50;;;;;;10346472;28;20058;-68
2020/12/24 09:34:34;;;;;;;0.20;0.20;;;5.80;98.40;;;;;;10334273;28;20681;-67
2020/12/24 09:39:36;;;;;;;0.20;0.20;;;5.90;98.30;;;;;;10343803;28;20046;-68
2020/12/24 09:44:38;;;;;;;0.10;0.10;;;6.00;98.30;;;;;;10334088;28;20140;-66
2020/12/24 09:49:39;;;;;;;0.17;0.17;;;6.30;98.10;;;;;;10339335;28;20058;-64
2020/12/24 09:54:40;;;;;;;0.30;0.30;;;6.40;97.30;;;;;;10337783;28;20481;-67
2020/12/24 09:59:43;;;;;;;0.20;0.20;;;;;;;;;;10350856;28;20140;-68
2020/12/24 10:04:44;;;;;;;0.20;0.20;;;6.60;95.60;;;;;;10339461;28;20130;-67
2020/12/24 10:09:46;;;;;;;0.13;0.13;;;6.60;95.60;;;;;;10330901;28;20050;-65
2020/12/24 10:14:48;;;;;;;0.10;0.10;;;6.60;95.60;;;;;;10346124;28;20117;-67
2020/12/24 10:19:51;;;;;;;0.20;0.20;;;6.60;95.60;;;;;;10339085;28;20071;-66
2020/12/24 10:24:53;;;;;;;0.63;0.63;;;;;;;;;;10341789;28;20137;-67
2020/12/24 10:29:55;;;;;;;0.20;0.20;;;;;;;;;;10353919;28;20087;-67
2020/12/24 10:34:57;;;;;;;13.03;3.07;;;7.70;99.90;;;;;;10332480;28;20073;-67
2020/12/24 10:39:58;;;;;;;0.20;0.20;;;8.00;93.00;;;;;;10346340;28;20046;-67
2020/12/24 10:45:00;;;;;;;0.10;0.10;;;8.60;91.80;;;;;;10331295;28;20050;-67
2020/12/24 10:50:01;;;;;;;0.20;0.20;;;8.90;89.70;;;;;;10337007;28;20050;-66
2020/12/24 10:55:03;;;;;;;0.20;0.20;;;9.00;88.70;;;;;;10332696;28;20096;-68
2020/12/24 11:00:06;;;;;;;0.65;0.65;;;;;;;;;;10335644;28;20038;-66
2020/12/24 11:05:07;;;;;;;0.20;0.20;;;8.10;90.20;;;;;;10337515;28;20058;-67
2020/12/24 11:10:08;;;;;;;0.20;0.20;;;7.60;91.70;;;;;;10342632;28;20134;-68
2020/12/24 11:15:10;;;;;;;0.17;0.17;;;7.40;91.60;;;;;;10338923;28;20056;-66
2020/12/24 11:20:12;;;;;;;0.20;0.20;;;7.80;91.00;;;;;;10340787;28;20133;-69
2020/12/24 11:25:13;;;;;;;0.10;0.10;;;11.80;81.10;;;;;;10338525;28;20089;-69
2020/12/24 11:30:15;;;;;;;0.20;0.20;;;11.00;77.80;;;;;;10336668;28;20158;-68
2020/12/24 11:35:16;;;;;;;0.52;0.52;;;9.50;83.80;;;;;;10336966;28;20179;-67
2020/12/24 11:40:18;;;;;;;0.10;0.10;;;10.60;82.70;;;;;;10342176;28;20046;-70
2020/12/24 11:45:20;;;;;;;0.10;0.10;;;13.30;74.60;;;;;;10342112;28;20054;-70
2020/12/24 11:50:21;;;;;;;0.10;0.10;;;11.90;76.90;;;;;;10342820;28;20076;-68
2020/12/24 11:55:23;;;;;;;0.20;0.20;;;;;;;;;;10344719;28;20141;-69
2020/12/24 12:00:26;;;;;;;0.30;0.30;;;9.40;89.50;;;;;;10337284;28;20133;-70
2020/12/24 12:05:27;;;;;;;0.73;0.73;;;8.80;85.40;;;;;;10349785;28;20092;-69
2020/12/24 12:10:28;;;;;;;0.20;0.20;;;9.60;82.90;;;;;;10342975;28;20057;-67
2020/12/24 12:15:30;;;;;;;0.20;0.20;;;12.30;79.40;;;;;;10350761;28;20141;-71
2020/12/24 12:20:32;;;;;;;0.20;0.20;;;;;;;;;;10337759;28;20051;-70
2020/12/24 12:25:33;;;;;;;0.63;0.63;;;11.00;73.70;;;;;;10340410;28;20104;-71
2020/12/24 12:30:36;;;;;;;0.20;0.20;;;9.80;78.20;;;;;;10345713;28;20129;-70
2020/12/24 12:35:37;;;;;;;0.20;0.20;;;8.90;80.90;;;;;;10346719;28;20466;-68
2020/12/24 12:40:39;;;;;;;0.13;0.13;;;8.20;82.40;;;;;;10337977;28;20129;-70
2020/12/24 12:45:41;;;;;;;0.20;0.20;;;8.30;83.20;;;;;;10344949;28;20057;-68
2020/12/24 12:50:42;;;;;;;0.20;0.20;;;9.80;77.00;;;;;;10336102;28;20058;-65
2020/12/24 12:55:44;;;;;;;0.13;0.13;;;9.90;76.00;;;;;;10338074;28;20129;-64
2020/12/24 13:00:46;;;;;;;0.20;0.20;;;10.00;77.00;;;;;;10336354;28;20046;-65
2020/12/24 13:05:47;;;;;;;0.10;0.10;;;10.20;75.70;;;;;;10338383;28;20089;-64
2020/12/24 13:10:49;;;;;;;0.77;0.77;;;9.20;79.60;;;;;;10330822;28;20145;-62
2020/12/24 13:15:51;;;;;;;0.20;0.20;;;8.00;86.00;;;;;;10345831;28;20050;-62
2020/12/24 13:20:52;;;;;;;0.30;0.30;;;6.70;91.30;;;;;;10345745;28;20050;-62
2020/12/24 13:25:54;;;;;;;0.30;0.30;;;6.00;93.60;;;;;;10345654;28;20070;-63
2020/12/24 13:30:56;;;;;;;0.20;0.20;;;5.70;94.90;;;;;;10338048;28;20050;-65
2020/12/24 13:35:57;;;;;;;0.20;0.20;;;5.60;95.60;;;;;;10349122;28;20054;-63
2020/12/24 13:40:59;;;;;;;0.38;0.38;;;5.70;95.70;;;;;;10336216;28;20069;-64
2020/12/24 13:46:01;;;;;;;0.20;0.20;;;5.90;95.50;;;;;;10333075;28;20058;-65
2020/12/24 13:51:02;;;;;;;0.22;0.22;;;6.00;94.90;;;;;;10338801;28;20045;-64
2020/12/24 13:56:03;;;;;;;0.30;0.30;;;5.90;94.40;;;;;;10339353;28;20145;-64
2020/12/24 14:01:07;;;;;;;0.30;0.30;;;5.90;94.00;;;;;;10334714;28;20423;-64
2020/12/24 14:06:09;;;;;;;0.30;0.30;;;6.20;93.70;;;;;;10330944;28;20057;-64
2020/12/24 14:11:17;;;;;;;0.20;0.20;;;7.50;92.20;;;;;;10336138;28;20092;-64
2020/12/24 14:16:19;;;;;;;0.20;0.20;;;7.20;92.20;;;;;;10339073;28;20060;-64
2020/12/24 14:21:21;;;;;;;0.20;0.20;;;6.60;92.90;;;;;;10338360;28;20120;-64
2020/12/24 14:26:22;;;;;;;0.20;0.20;;;6.20;92.90;;;;;;10339655;28;20048;-64
2020/12/24 14:31:25;;;;;;;0.50;0.50;;;6.00;92.90;;;;;;10333307;28;20112;-64
2020/12/24 14:36:26;;;;;;;0.30;0.30;;;5.90;92.70;;;;;;10338060;28;20137;-64
2020/12/24 14:41:27;;;;;;;0.20;0.20;;;5.80;93.10;;;;;;10339568;28;20086;-65
2020/12/24 14:46:29;;;;;;;0.30;0.30;;;5.70;93.00;;;;;;10339288;28;20078;-64
2020/12/24 14:51:31;;;;;;;1.48;1.38;;;5.70;93.00;;;;;;10339880;28;20053;-63
2020/12/24 14:56:32;;;;;;;0.20;0.20;;;;;;;;;;10341754;28;20541;-64
2020/12/24 15:01:35;;;;;;;0.63;0.63;;;5.80;91.90;;;;;;10329911;28;20161;-64
2020/12/24 15:06:36;;;;;;;0.77;0.77;;;5.80;92.40;;;;;;10335596;28;20482;-63
2020/12/24 15:11:37;;;;;;;0.25;0.25;;;5.50;93.60;;;;;;10344063;28;20053;-63
2020/12/24 15:16:39;;;;;;;0.73;0.73;;;5.20;94.30;;;;;;10343975;28;20057;-62
2020/12/24 15:21:51;;;;;;;0.28;0.28;;;;;;;;;;10346782;28;20137;-62
2020/12/24 15:26:53;;;;;;;0.40;0.40;;;4.80;95.10;;;;;;10584583;23;20058;-63
2020/12/24 15:31:55;;;;;;;0.30;0.30;;;4.50;95.20;;;;;;10362578;28;20078;-64
2020/12/24 15:36:56;;;;;;;0.40;0.40;;;4.40;96.00;;;;;;10361425;28;20089;-64
2020/12/24 15:41:58;;;;;;;0.15;0.15;;;4.50;96.80;;;;;;10362414;28;20476;-64
2020/12/24 15:47:10;;;;;;;0.52;0.52;;;4.60;97.20;;;;;;10381327;28;20071;-63
2020/12/24 15:52:12;;;;;;;0.30;0.30;;;4.70;97.50;;;;;;10368507;28;21172;-66
2020/12/24 15:57:13;;;;;;;0.30;0.30;;;4.60;97.20;;;;;;10364074;28;20123;-65
2020/12/24 16:02:15;;;;;;;0.30;0.30;;;4.30;96.60;;;;;;10363750;28;20458;-66
2020/12/24 16:07:17;;;;;;;0.30;0.30;;;4.20;96.50;;;;;;10367479;28;20050;-67
2020/12/24 16:12:18;;;;;;;0.30;0.30;;;4.20;96.60;;;;;;10362220;28;20056;-66
2020/12/24 16:17:20;;;;;;;0.32;0.32;;;4.30;96.70;;;;;;10366449;28;20157;-69
2020/12/24 16:22:21;;;;;;;0.20;0.20;;;4.40;96.70;;;;;;10365857;28;20053;-66
2020/12/24 16:27:23;;;;;;;0.30;0.30;;;4.50;99.90;;;;;;10361585;28;20054;-68
2020/12/24 16:32:25;;;;;;;0.57;0.57;;;4.30;99.90;;;;;;10364593;28;20100;-67
2020/12/24 16:37:26;;;;;;;0.20;0.20;;;4.40;99.90;;;;;;10362533;28;20417;-68
2020/12/24 16:42:28;;;;;;;0.30;0.30;;;4.50;99.90;;;;;;10363746;28;20073;-67
2020/12/24 16:47:30;;;;;;;1.00;1.00;;;4.60;99.90;;;;;;10360928;28;20587;-67
2020/12/24 16:52:32;;;;;;;0.40;0.40;;;4.60;99.90;;;;;;10359015;28;20061;-67
2020/12/24 16:57:33;;;;;;;0.30;0.30;;;4.60;97.70;;;;;;10364053;28;20058;-67
2020/12/24 17:02:35;;;;;;;0.20;0.20;;;4.60;98.10;;;;;;10363138;28;20042;-67
2020/12/24 17:07:36;;;;;;;0.30;0.30;;;4.70;96.00;;;;;;10363368;28;20478;-66
2020/12/24 17:12:38;;;;;;;0.77;0.77;;;4.70;95.80;;;;;;10363696;28;20089;-67
2020/12/24 17:17:40;;;;;;;0.20;0.20;;;;;;;;;;10359007;28;20502;-68
2020/12/24 17:22:41;;;;;;;0.30;0.30;;;5.20;99.90;;;;;;10356816;28;20085;-67
2020/12/24 17:27:43;;;;;;;0.85;0.85;;;5.10;93.40;;;;;;10359054;28;20054;-67
2020/12/24 17:32:45;;;;;;;0.22;0.22;;;5.00;93.20;;;;;;10361254;28;20076;-68
2020/12/24 17:37:47;;;;;;;0.30;0.30;;;;;;;;;;10362829;28;20174;-66
2020/12/24 17:42:48;;;;;;;13.75;3.15;;;5.20;99.90;;;;;;10362040;28;20471;-67
2020/12/24 17:47:50;;;;;;;0.40;0.40;;;;;;;;;;10358687;28;20046;-66
2020/12/24 17:52:52;;;;;;;0.27;0.27;;;5.20;99.90;;;;;;10354227;28;20073;-65
2020/12/24 17:57:53;;;;;;;0.30;0.30;;;;;;;;;;10360580;28;20045;-70
2020/12/24 18:02:55;;;;;;;0.30;0.30;;;5.00;90.90;;;;;;10362960;28;20049;-67
2020/12/24 18:07:57;;;;;;;0.30;0.30;;;5.00;91.20;;;;;;10356617;28;20101;-68
2020/12/24 18:12:58;;;;;;;0.20;0.20;;;4.90;91.50;;;;;;10358024;28;20137;-68
2020/12/24 18:18:00;;;;;;;0.20;0.20;;;;;;;;;;10362901;28;20152;-73
2020/12/24 18:23:02;;;;;;;0.30;0.30;;;5.10;98.60;;;;;;10359793;28;20054;-68
2020/12/24 18:28:03;;;;;;;0.30;0.30;;;5.10;99.90;;;;;;10359098;28;20555;-71
2020/12/24 18:33:05;;;;;;;0.20;0.20;;;4.90;91.00;;;;;;10361366;28;20049;-68
2020/12/24 18:38:07;;;;;;;0.20;0.20;;;4.80;90.20;;;;;;10358631;28;20148;-68
2020/12/24 18:43:08;;;;;;;0.30;0.30;;;4.80;88.20;;;;;;10356377;28;20132;-68
2020/12/24 18:48:10;;;;;;;0.20;0.20;;;4.70;88.40;;;;;;10321068;28;20058;-65
2020/12/24 18:53:11;;;;;;;0.28;0.28;;;4.70;89.10;;;;;;10322070;28;20053;-68
2020/12/24 18:58:14;;;;;;;0.30;0.30;;;4.70;89.60;;;;;;10317535;28;20046;-64
2020/12/24 19:03:16;;;;;;;0.30;0.30;;;4.70;90.00;;;;;;10322947;28;20093;-65
2020/12/24 19:08:17;;;;;;;0.20;0.20;;;4.80;90.60;;;;;;10322167;28;20137;-69
2020/12/24 19:13:18;;;;;;;0.52;0.52;;;4.80;90.50;;;;;;10321450;28;20050;-65
2020/12/24 19:18:20;;;;;;;0.20;0.20;;;4.90;90.20;;;;;;10320929;28;20058;-67
2020/12/24 19:23:22;;;;;;;0.85;0.80;;;5.10;90.40;;;;;;10319461;28;20057;-65
2020/12/24 19:28:23;;;;;;;0.30;0.30;;;5.40;90.50;;;;;;10320115;28;20076;-67
2020/12/24 19:33:25;;;;;;;0.20;0.20;;;5.40;90.30;;;;;;10319720;28;20106;-68
2020/12/24 19:38:26;;;;;;;0.30;0.30;;;5.30;89.90;;;;;;10315478;28;20464;-69
2020/12/24 19:43:28;;;;;;;0.30;0.30;;;4.80;90.00;;;;;;10320661;28;20062;-70
2020/12/24 19:48:30;;;;;;;0.20;0.20;;;;;;;;;;10321158;28;20076;-69
2020/12/24 19:53:32;;;;;;;0.40;0.40;;;4.30;91.50;;;;;;10319721;28;20483;-70
2020/12/24 19:58:34;;;;;;;0.28;0.28;;;4.40;93.00;;;;;;10326960;28;20085;-68
2020/12/24 20:03:37;;;;;;;0.28;0.28;;;4.70;93.00;;;;;;10327695;28;20165;-66
2020/12/24 20:08:39;;;;;;;0.22;0.22;;;4.60;93.10;;;;;;10326914;28;20050;-71
2020/12/24 20:13:40;;;;;;;0.30;0.30;;;4.20;92.90;;;;;;10329820;28;20060;-66
2020/12/24 20:18:43;;;;;;;0.20;0.20;;;3.90;93.60;;;;;;10614293;23;20057;-66
2020/12/24 20:23:44;;;;;;;0.30;0.30;;;3.90;94.50;;;;;;10402002;28;20041;-65
2020/12/24 20:28:45;;;;;;;0.35;0.35;;;3.90;94.90;;;;;;10404261;28;20054;-67
2020/12/24 20:33:47;;;;;;;0.30;0.30;;;4.00;95.00;;;;;;10403841;28;20845;-66
2020/12/24 20:38:49;;;;;;;1.60;1.50;;;4.10;95.20;;;;;;10400109;28;20053;-65
2020/12/24 20:43:50;;;;;;;0.40;0.40;;;4.30;95.80;;;;;;10404080;28;20248;-66
2020/12/24 20:48:53;;;;;;;0.20;0.20;;;4.60;96.00;;;;;;10402272;28;20172;-67
2020/12/24 20:53:54;;;;;;;0.30;0.30;;;4.80;95.30;;;;;;10404908;28;20475;-66
2020/12/24 20:58:55;;;;;;;0.30;0.30;;;5.00;94.90;;;;;;10401368;28;20095;-66
2020/12/24 21:03:57;;;;;;;0.40;0.40;;;5.00;94.50;;;;;;10395108;28;20129;-66
2020/12/24 21:08:59;;;;;;;1.77;1.67;;;;;;;;;;10402714;28;20466;-66
2020/12/24 21:14:00;;;;;;;0.90;0.90;;;5.10;98.20;;;;;;10401783;28;20402;-67
2020/12/24 21:19:03;;;;;;;0.20;0.20;;;5.00;94.80;;;;;;10401111;28;20130;-66
2020/12/24 21:24:04;;;;;;;0.20;0.20;;;5.10;95.20;;;;;;10399359;28;20053;-66
2020/12/24 21:29:05;;;;;;;0.50;0.50;;;5.20;95.10;;;;;;10401723;28;20037;-66
2020/12/24 21:34:07;;;;;;;0.50;0.50;;;5.20;94.80;;;;;;10405400;28;20057;-66
2020/12/24 21:39:09;;;;;;;0.20;0.20;;;5.20;95.00;;;;;;10402921;28;20164;-66
2020/12/24 21:44:10;;;;;;;0.28;0.28;;;5.30;94.70;;;;;;10400742;28;20049;-67
2020/12/24 21:49:13;;;;;;;0.30;0.30;;;5.40;94.20;;;;;;10403109;28;20052;-66
2020/12/24 21:54:14;;;;;;;0.30;0.30;;;5.50;93.40;;;;;;10401363;28;20064;-66
2020/12/24 21:59:15;;;;;;;0.20;0.20;;;5.20;92.80;;;;;;10401417;28;20443;-67
2020/12/24 22:04:17;;;;;;;0.28;0.28;;;4.90;93.40;;;;;;10395947;28;20528;-66
2020/12/24 22:09:19;;;;;;;0.35;0.35;;;4.70;93.90;;;;;;10402358;28;20059;-66
2020/12/24 22:14:20;;;;;;;0.25;0.25;;;4.60;99.90;;;;;;10405407;28;20053;-66
2020/12/24 22:19:23;;;;;;;0.20;0.20;;;;;;;;;;10400823;28;20050;-67
2020/12/24 22:24:24;;;;;;;0.30;0.30;;;4.20;94.40;;;;;;10406512;28;20077;-67
2020/12/24 22:29:27;;;;;;;0.30;0.30;;;4.30;95.00;;;;;;10403504;28;20186;-65
2020/12/24 22:34:29;;;;;;;0.20;0.20;;;4.40;95.50;;;;;;10402043;28;20485;-66
2020/12/24 22:39:30;;;;;;;0.30;0.30;;;4.30;95.70;;;;;;10405987;28;20049;-67
2020/12/24 22:44:32;;;;;;;0.30;0.30;;;3.90;95.10;;;;;;10386534;28;20057;-66
2020/12/24 22:49:34;;;;;;;0.50;0.50;;;3.70;95.70;;;;;;10403574;28;20140;-66
2020/12/24 22:54:35;;;;;;;0.20;0.20;;;3.80;96.40;;;;;;10402469;28;20140;-66
2020/12/24 22:59:36;;;;;;;0.30;0.30;;;3.80;96.70;;;;;;10403362;28;20128;-66
2020/12/24 23:04:38;;;;;;;0.40;0.40;;;3.80;97.00;;;;;;10398284;28;20168;-66
2020/12/24 23:09:40;;;;;;;0.47;0.47;;;3.70;96.60;;;;;;10402134;28;20056;-66
2020/12/24 23:14:41;;;;;;;0.85;0.85;;;3.40;96.20;;;;;;10399427;28;20490;-66
2020/12/24 23:19:43;;;;;;;0.30;0.30;;;3.20;96.20;;;;;;10405135;28;20054;-66
2020/12/24 23:24:45;;;;;;;0.30;0.30;;;3.20;96.40;;;;;;10404458;28;20459;-65
2020/12/24 23:29:46;;;;;;;0.38;0.38;;;3.10;96.50;;;;;;10406233;28;21803;-66
2020/12/24 23:34:48;;;;;;;0.30;0.30;;;3.10;96.50;;;;;;10409768;28;20084;-65
2020/12/24 23:39:50;;;;;;;0.30;0.30;;;3.10;96.70;;;;;;10408456;28;20140;-67
2020/12/24 23:44:51;;;;;;;0.30;0.30;;;3.10;96.80;;;;;;10417522;28;20068;-66
2020/12/24 23:49:55;;;;;;;0.30;0.30;;;3.10;96.80;;;;;;10414279;28;20489;-65
2020/12/24 23:54:56;;;;;;;0.32;0.32;;;3.10;96.90;;;;;;10409849;28;20049;-66
2020/12/24 23:59:57;;;;;;;0.30;0.30;;;3.10;97.10;;;;;;10412436;28;20084;-67
